createdAt,value
2022-10-23T00:01:40.557Z,100164.03
2022-10-23T00:04:12.688Z,100164.97
2022-10-23T00:06:40.278Z,100163.19
2022-10-23T00:09:09.335Z,100158.94
2022-10-23T00:11:37.029Z,100159.88
2022-10-23T00:14:06.689Z,100152.16
2022-10-23T00:16:33.877Z,100163.59
2022-10-23T00:19:00.838Z,100162.88
2022-10-23T00:21:28.020Z,100162.16
2022-10-23T00:23:54.937Z,100166.59
2022-10-23T00:26:21.860Z,100155.34
2022-10-23T00:28:51.745Z,100164.16
2022-10-23T00:31:20.798Z,100167.03
2022-10-23T00:33:47.830Z,100165.34
2022-10-23T00:36:16.699Z,100164.50
2022-10-23T00:38:44.055Z,100162.06
2022-10-23T00:41:16.424Z,100156.84
2022-10-23T00:44:19.126Z,100162.16
2022-10-23T00:46:46.557Z,100165.78
2022-10-23T00:49:13.830Z,100163.00
2022-10-23T00:51:51.994Z,100154.31
2022-10-23T00:54:24.671Z,100153.47
2022-10-23T00:56:54.947Z,100165.13
2022-10-23T00:59:22.009Z,100159.84
2022-10-23T01:01:49.278Z,100163.47
2022-10-23T01:04:16.763Z,100170.56
2022-10-23T01:07:05.233Z,100167.06
2022-10-23T01:09:58.293Z,100162.09
2022-10-23T01:13:11.473Z,100168.13
2022-10-23T01:15:48.657Z,100169.06
2022-10-23T01:18:24.707Z,100174.59
2022-10-23T01:21:00.780Z,100169.19
2022-10-23T01:23:52.128Z,100164.94
2022-10-23T01:26:18.800Z,100169.41
2022-10-23T01:29:24.276Z,100166.88
2022-10-23T01:32:23.486Z,100165.16
2022-10-23T01:35:12.144Z,100153.72
2022-10-23T01:37:50.140Z,100163.56
2022-10-23T01:40:33.164Z,100163.66
2022-10-23T01:43:05.102Z,100155.72
2022-10-23T01:45:40.368Z,100154.78
2022-10-23T01:48:11.090Z,100159.34
2022-10-23T01:50:40.421Z,100141.72
2022-10-23T01:53:07.444Z,100146.19
2022-10-23T01:55:37.337Z,100152.44
2022-10-23T01:58:08.677Z,100143.66
2022-10-23T02:00:39.428Z,100135.69
2022-10-23T02:03:08.884Z,100137.63
2022-10-23T02:05:36.501Z,100141.22
2022-10-23T02:08:03.512Z,100128.91
2022-10-23T02:10:55.301Z,100134.44
2022-10-23T02:13:33.667Z,100135.38
2022-10-23T02:16:12.628Z,100130.09
2022-10-23T02:18:54.565Z,100120.56
2022-10-23T02:21:33.934Z,100115.34
2022-10-23T02:24:09.879Z,100116.19
2022-10-23T02:26:40.340Z,100109.22
2022-10-23T02:29:21.199Z,100118.75
2022-10-23T02:31:48.000Z,100108.38
2022-10-23T02:34:14.831Z,100104.88
2022-10-23T02:36:41.838Z,100110.28
2022-10-23T02:39:09.513Z,100119.19
2022-10-23T02:41:54.154Z,100113.03
2022-10-23T02:44:38.075Z,100123.75
2022-10-23T02:47:11.095Z,100110.50
2022-10-23T02:49:59.654Z,100107.13
2022-10-23T02:52:30.076Z,100118.53
2022-10-23T02:55:23.251Z,100096.53
2022-10-23T02:58:10.702Z,100101.91
2022-10-23T03:00:43.086Z,100106.34
2022-10-23T03:03:17.491Z,100101.06
2022-10-23T03:05:47.638Z,100102.84
2022-10-23T03:08:15.541Z,100095.03
2022-10-23T03:10:43.186Z,100090.66
2022-10-23T03:13:11.482Z,100085.50
2022-10-23T03:15:38.309Z,100095.22
2022-10-23T03:18:05.464Z,100095.44
2022-10-23T03:20:32.252Z,100099.78
2022-10-23T03:22:59.062Z,100098.00
2022-10-23T03:25:25.903Z,100099.69
2022-10-23T03:27:52.709Z,100093.75
2022-10-23T03:30:20.069Z,100093.97
2022-10-23T03:32:46.870Z,100100.00
2022-10-23T03:35:13.757Z,100100.13
2022-10-23T03:37:40.759Z,100108.91
2022-10-23T03:40:08.467Z,100115.16
2022-10-23T03:42:35.319Z,100099.28
2022-10-23T03:45:02.344Z,100098.53
2022-10-23T03:47:30.703Z,100094.91
2022-10-23T03:49:57.753Z,100095.13
2022-10-23T03:55:11.923Z,100101.41
2022-10-23T03:57:39.085Z,100102.34
2022-10-23T04:00:07.150Z,100110.28
2022-10-23T04:02:34.006Z,100113.88
2022-10-23T04:05:00.909Z,100105.19
2022-10-23T04:07:27.740Z,100101.69
2022-10-23T04:09:54.606Z,100103.41
2022-10-23T04:12:21.450Z,100096.50
2022-10-23T04:14:48.268Z,100096.50
2022-10-23T04:17:15.247Z,100097.47
2022-10-23T04:19:42.106Z,100089.50
2022-10-23T04:22:08.897Z,100096.63
2022-10-23T04:24:35.818Z,100095.78
2022-10-23T04:27:02.594Z,100095.78
2022-10-23T04:29:31.858Z,100091.63
2022-10-23T04:31:59.053Z,100104.03
2022-10-23T04:34:25.843Z,100106.59
2022-10-23T04:36:52.623Z,100101.38
2022-10-23T04:39:19.580Z,100101.38
2022-10-23T04:41:46.552Z,100111.16
2022-10-23T04:44:13.475Z,100107.69
2022-10-23T04:46:40.279Z,100111.31
2022-10-23T04:49:07.126Z,100106.97
2022-10-23T04:51:33.904Z,100103.47
2022-10-23T04:54:00.733Z,100101.78
2022-10-23T04:56:27.567Z,100099.34
2022-10-23T04:58:55.221Z,100115.09
2022-10-23T05:01:22.146Z,100109.81
2022-10-23T05:03:49.048Z,100107.16
2022-10-23T05:06:15.878Z,100106.44
2022-10-23T05:08:42.707Z,100103.91
2022-10-23T05:11:09.480Z,100105.56
2022-10-23T05:13:36.404Z,100094.25
2022-10-23T05:16:03.478Z,100097.84
2022-10-23T05:18:35.946Z,100096.03
2022-10-23T05:21:28.094Z,100092.66
2022-10-23T05:23:55.083Z,100093.50
2022-10-23T05:26:22.675Z,100093.59
2022-10-23T05:28:49.644Z,100083.88
2022-10-23T05:31:17.891Z,100089.28
2022-10-23T05:33:44.848Z,100087.56
2022-10-23T05:36:14.297Z,100088.44
2022-10-23T05:38:41.455Z,100083.22
2022-10-23T05:41:08.245Z,100083.22
2022-10-23T05:43:35.083Z,100082.47
2022-10-23T05:46:06.329Z,100083.34
2022-10-23T05:48:35.334Z,100075.50
2022-10-23T05:51:04.680Z,100072.88
2022-10-23T05:53:31.471Z,100070.22
2022-10-23T05:56:07.264Z,100063.09
2022-10-23T05:58:34.706Z,100066.81
2022-10-23T06:01:06.922Z,100059.84
2022-10-23T06:03:33.911Z,100063.44
2022-10-23T06:06:00.781Z,100057.06
2022-10-23T06:08:27.764Z,100057.94
2022-10-23T06:10:54.608Z,100056.22
2022-10-23T06:13:21.668Z,100049.25
2022-10-23T06:15:48.804Z,100042.25
2022-10-23T06:18:16.242Z,100036.88
2022-10-23T06:20:43.093Z,100042.03
2022-10-23T06:23:09.932Z,100043.75
2022-10-23T06:25:36.857Z,100038.47
2022-10-23T06:28:03.681Z,100041.09
2022-10-23T06:30:30.614Z,100037.59
2022-10-23T06:32:57.538Z,100034.94
2022-10-23T06:35:24.425Z,100028.69
2022-10-23T06:37:51.262Z,100036.63
2022-10-23T06:40:18.198Z,100027.75
2022-10-23T06:42:45.194Z,100026.91
2022-10-23T06:45:12.357Z,100034.84
2022-10-23T06:47:39.208Z,100020.88
2022-10-23T06:50:06.312Z,100029.53
2022-10-23T06:52:46.574Z,100027.88
2022-10-23T06:55:14.118Z,100033.16
2022-10-23T06:57:41.302Z,100027.09
2022-10-23T07:00:09.022Z,100024.44
2022-10-23T07:02:36.717Z,100019.16
2022-10-23T07:05:03.721Z,100022.78
2022-10-23T07:07:31.067Z,100033.38
2022-10-23T07:09:58.130Z,100029.88
2022-10-23T07:12:25.045Z,100032.59
2022-10-23T07:14:51.887Z,100029.88
2022-10-23T07:17:18.732Z,100037.81
2022-10-23T07:19:46.938Z,100031.44
2022-10-23T07:22:15.978Z,100042.78
2022-10-23T07:24:43.341Z,100040.13
2022-10-23T07:27:10.425Z,100042.78
2022-10-23T07:29:37.649Z,100042.91
2022-10-23T07:32:04.925Z,100039.91
2022-10-23T07:34:32.413Z,100045.22
2022-10-23T07:36:59.367Z,100033.78
2022-10-23T07:39:26.375Z,100039.91
2022-10-23T07:41:53.333Z,100041.72
2022-10-23T07:44:22.029Z,100041.63
2022-10-23T07:46:51.283Z,100050.31
2022-10-23T07:49:18.241Z,100034.41
2022-10-23T07:51:50.426Z,100040.56
2022-10-23T07:54:18.709Z,100037.81
2022-10-23T07:56:45.837Z,100046.47
2022-10-23T07:59:13.738Z,100052.75
2022-10-23T08:01:42.909Z,100041.19
2022-10-23T08:04:11.062Z,100041.94
2022-10-23T08:06:38.601Z,100036.66
2022-10-23T08:09:06.798Z,100046.28
2022-10-23T08:11:35.998Z,100052.53
2022-10-23T08:14:05.079Z,100049.88
2022-10-23T08:16:37.933Z,100059.41
2022-10-23T08:19:07.007Z,100047.97
2022-10-23T08:21:34.483Z,100047.03
2022-10-23T08:24:01.651Z,100043.41
2022-10-23T08:26:31.871Z,100053.06
2022-10-23T08:29:00.901Z,100045.97
2022-10-23T08:31:28.198Z,100040.75
2022-10-23T08:33:55.220Z,100037.19
2022-10-23T08:36:24.876Z,100032.59
2022-10-23T08:38:55.639Z,100037.81
2022-10-23T08:41:38.742Z,100040.56
2022-10-23T08:44:19.609Z,100038.84
2022-10-23T08:47:17.326Z,100030.09
2022-10-23T08:49:52.248Z,100026.59
2022-10-23T08:52:42.322Z,100036.44
2022-10-23T08:55:44.663Z,100033.78
2022-10-23T08:58:46.922Z,100018.00
2022-10-23T09:01:24.594Z,100004.03
2022-10-23T09:03:51.670Z,100005.09
2022-10-23T09:06:41.390Z,100008.59
2022-10-23T09:09:17.295Z,99999.66
2022-10-23T09:12:13.774Z,99997.88
2022-10-23T09:14:52.761Z,99996.09
2022-10-23T09:17:31.784Z,99995.22
2022-10-23T09:20:01.909Z,99997.16
2022-10-23T09:22:29.555Z,99999.78
2022-10-23T09:24:56.887Z,99999.06
2022-10-23T09:27:23.994Z,99994.59
2022-10-23T09:29:55.025Z,99994.59
2022-10-23T09:32:34.664Z,99997.34
2022-10-23T09:35:01.844Z,99996.41
2022-10-23T09:37:32.308Z,99997.34
2022-10-23T09:40:12.158Z,99997.34
2022-10-23T09:42:50.276Z,99998.22
2022-10-23T09:45:32.324Z,99998.22
2022-10-23T09:48:07.199Z,100011.31
2022-10-23T09:50:34.090Z,99996.63
2022-10-23T09:53:01.039Z,99999.56
2022-10-23T09:55:28.429Z,99998.97
2022-10-23T09:57:55.797Z,99997.03
2022-10-23T10:00:25.388Z,100004.97
2022-10-23T10:03:20.705Z,100001.59
2022-10-23T10:05:56.231Z,99997.38
2022-10-23T10:08:44.708Z,99990.91
2022-10-23T10:11:24.655Z,99998.63
2022-10-23T10:14:01.037Z,99998.19
2022-10-23T10:19:30.761Z,99992.28
2022-10-23T10:22:27.536Z,99992.69
2022-10-23T10:25:03.463Z,99987.91
2022-10-23T10:27:48.844Z,99984.44
2022-10-23T10:30:21.361Z,99983.38
2022-10-23T10:33:15.038Z,99977.25
2022-10-23T10:35:55.208Z,99976.19
2022-10-23T10:38:47.495Z,99975.22
2022-10-23T10:41:42.118Z,99974.25
2022-10-23T10:44:18.214Z,99969.81
2022-10-23T10:47:06.050Z,99968.13
2022-10-23T10:49:57.596Z,99976.91
2022-10-23T10:52:49.487Z,99968.97
2022-10-23T10:55:30.426Z,99963.66
2022-10-23T10:58:06.111Z,99953.09
2022-10-23T11:00:34.408Z,99948.63
2022-10-23T11:03:13.068Z,99948.50
2022-10-23T11:05:46.954Z,99942.41
2022-10-23T11:08:16.621Z,99934.47
2022-10-23T11:10:46.862Z,99929.16
2022-10-23T11:13:36.690Z,99926.28
2022-10-23T11:16:12.023Z,99926.91
2022-10-23T11:18:42.435Z,99915.38
2022-10-23T11:21:26.205Z,99911.75
2022-10-23T11:24:46.699Z,99917.03
2022-10-23T11:27:19.114Z,99913.44
2022-10-23T11:29:49.771Z,99905.41
2022-10-23T11:32:47.717Z,99900.13
2022-10-23T11:35:37.467Z,99903.53
2022-10-23T11:38:13.480Z,99903.41
2022-10-23T11:41:18.177Z,99895.47
2022-10-23T11:44:03.863Z,99902.56
2022-10-23T11:46:35.514Z,99907.75
2022-10-23T11:49:06.348Z,99898.09
2022-10-23T11:51:37.361Z,99895.38
2022-10-23T11:54:16.453Z,99885.59
2022-10-23T11:57:10.322Z,99886.34
2022-10-23T11:59:49.891Z,99892.47
2022-10-23T12:02:33.961Z,99880.94
2022-10-23T12:05:23.663Z,99878.28
2022-10-23T12:07:56.214Z,99873.72
2022-10-23T12:10:56.130Z,99869.28
2022-10-23T12:13:38.053Z,99880.59
2022-10-23T12:16:07.970Z,99865.56
2022-10-23T12:18:53.348Z,99865.34
2022-10-23T12:21:28.918Z,99856.31
2022-10-23T12:24:08.741Z,99848.16
2022-10-23T12:26:38.654Z,99847.47
2022-10-23T12:29:24.380Z,99840.25
2022-10-23T12:32:16.843Z,99823.66
2022-10-23T12:35:05.788Z,99830.44
2022-10-23T12:37:41.517Z,99834.53
2022-10-23T12:40:11.064Z,99829.00
2022-10-23T12:42:38.956Z,99820.81
2022-10-23T12:45:06.130Z,99822.28
2022-10-23T12:47:33.353Z,99818.66
2022-10-23T12:50:00.506Z,99810.63
2022-10-23T12:52:27.616Z,99798.94
2022-10-23T12:54:54.674Z,99799.66
2022-10-23T12:57:27.650Z,99787.84
2022-10-23T13:00:02.705Z,99784.00
2022-10-23T13:02:32.276Z,99780.38
2022-10-23T13:05:02.351Z,99772.09
2022-10-23T13:07:32.286Z,99765.56
2022-10-23T13:10:00.337Z,99759.19
2022-10-23T13:12:33.758Z,99753.78
2022-10-23T13:15:21.022Z,99746.28
2022-10-23T13:18:01.343Z,99741.59
2022-10-23T13:20:31.757Z,99736.63
2022-10-23T13:23:12.707Z,99740.16
2022-10-23T13:25:40.510Z,99731.47
2022-10-23T13:28:23.154Z,99727.84
2022-10-23T13:31:05.658Z,99726.50
2022-10-23T13:33:42.589Z,99713.72
2022-10-23T13:36:09.456Z,99709.78
2022-10-23T13:38:38.263Z,99699.66
2022-10-23T13:41:07.313Z,99694.00
2022-10-23T13:43:48.956Z,99691.22
2022-10-23T13:46:18.324Z,99687.94
2022-10-23T13:48:46.469Z,99679.88
2022-10-23T13:51:16.929Z,99678.38
2022-10-23T13:53:44.019Z,99668.38
2022-10-23T13:56:15.567Z,99663.41
2022-10-23T13:58:42.866Z,99660.97
2022-10-23T14:01:27.091Z,99667.97
2022-10-23T14:03:55.367Z,99661.16
2022-10-23T14:06:22.317Z,99652.25
2022-10-23T14:08:49.525Z,99647.41
2022-10-23T14:11:18.834Z,99643.50
2022-10-23T14:13:46.447Z,99634.31
2022-10-23T14:16:15.985Z,99633.38
2022-10-23T14:18:43.043Z,99619.81
2022-10-23T14:21:12.780Z,99624.16
2022-10-23T14:23:40.229Z,99614.25
2022-10-23T14:26:13.210Z,99618.09
2022-10-23T14:28:40.235Z,99612.81
2022-10-23T14:31:26.042Z,99620.81
2022-10-23T14:33:56.371Z,99619.69
2022-10-23T14:36:24.372Z,99616.56
2022-10-23T14:38:55.837Z,99602.88
2022-10-23T14:41:23.146Z,99603.47
2022-10-23T14:43:50.193Z,99596.91
2022-10-23T14:46:19.961Z,99593.28
2022-10-23T14:48:49.445Z,99592.16
2022-10-23T14:51:25.869Z,99585.75
2022-10-23T14:53:59.722Z,99588.06
2022-10-23T14:56:26.981Z,99587.38
2022-10-23T14:58:54.385Z,99582.22
2022-10-23T15:01:21.536Z,99577.25
2022-10-23T15:03:54.965Z,99577.66
2022-10-23T15:06:22.064Z,99573.34
2022-10-23T15:08:54.818Z,99563.66
2022-10-23T15:11:22.457Z,99561.63
2022-10-23T15:13:50.313Z,99563.53
2022-10-23T15:16:17.539Z,99565.56
2022-10-23T15:18:44.715Z,99556.84
2022-10-23T15:21:11.635Z,99553.25
2022-10-23T15:23:42.634Z,99556.84
2022-10-23T15:26:20.482Z,99549.75
2022-10-23T15:28:58.759Z,99544.56
2022-10-23T15:31:37.924Z,99537.03
2022-10-23T15:34:06.423Z,99545.72
2022-10-23T15:36:34.441Z,99534.25
2022-10-23T15:39:01.586Z,99544.03
2022-10-23T15:41:33.663Z,99532.00
2022-10-23T15:44:02.661Z,99524.88
2022-10-23T15:46:30.023Z,99526.69
2022-10-23T15:48:57.369Z,99524.03
2022-10-23T15:51:24.657Z,99518.63
2022-10-23T15:53:51.496Z,99513.31
2022-10-23T15:56:18.449Z,99507.00
2022-10-23T15:58:45.369Z,99500.72
2022-10-23T16:01:12.876Z,99500.72
2022-10-23T16:03:40.038Z,99491.47
2022-10-23T16:06:09.938Z,99482.53
2022-10-23T16:08:37.907Z,99479.78
2022-10-23T16:11:13.076Z,99474.47
2022-10-23T16:13:40.040Z,99476.00
2022-10-23T16:16:07.594Z,99475.84
2022-10-23T16:18:34.617Z,99473.03
2022-10-23T16:21:01.637Z,99465.78
2022-10-23T16:23:28.623Z,99464.38
2022-10-23T16:25:55.788Z,99449.69
2022-10-23T16:28:22.698Z,99448.97
2022-10-23T16:30:49.699Z,99448.16
2022-10-23T16:33:16.638Z,99442.00
2022-10-23T16:35:44.025Z,99437.78
2022-10-23T16:38:11.380Z,99437.78
2022-10-23T16:40:38.455Z,99440.28
2022-10-23T16:43:05.838Z,99439.44
2022-10-23T16:45:37.080Z,99429.41
2022-10-23T16:48:05.034Z,99435.13
2022-10-23T16:50:32.244Z,99435.66
2022-10-23T16:52:59.753Z,99450.38
2022-10-23T16:55:26.856Z,99435.56
2022-10-23T16:57:53.865Z,99436.13
2022-10-23T17:00:22.917Z,99437.53
2022-10-23T17:02:50.457Z,99429.28
2022-10-23T17:05:17.517Z,99434.16
2022-10-23T17:07:44.791Z,99430.66
2022-10-23T17:10:11.864Z,99421.84
2022-10-23T17:12:38.896Z,99417.81
2022-10-23T17:15:06.447Z,99417.06
2022-10-23T17:17:33.422Z,99408.69
2022-10-23T17:20:00.579Z,99408.69
2022-10-23T17:22:28.055Z,99400.84
2022-10-23T17:24:57.009Z,99398.88
2022-10-23T17:27:23.957Z,99395.81
2022-10-23T17:29:51.212Z,99386.03
2022-10-23T17:32:18.340Z,99397.22
2022-10-23T17:34:46.741Z,99387.56
2022-10-23T17:37:14.707Z,99382.41
2022-10-23T17:39:42.218Z,99384.22
2022-10-23T17:42:09.544Z,99371.63
2022-10-23T17:44:37.675Z,99375.69
2022-10-23T17:47:04.828Z,99366.72
2022-10-23T17:49:31.791Z,99365.06
2022-10-23T17:51:58.842Z,99365.91
2022-10-23T17:54:27.957Z,99350.78
2022-10-23T17:56:55.011Z,99359.22
2022-10-23T17:59:22.191Z,99351.09
2022-10-23T18:01:52.975Z,99355.56
2022-10-23T18:04:22.696Z,99352.19
2022-10-23T18:06:52.944Z,99346.19
2022-10-23T18:09:21.857Z,99337.78
2022-10-23T18:11:50.097Z,99336.50
2022-10-23T18:14:19.645Z,99330.81
2022-10-23T18:16:47.152Z,99323.38
2022-10-23T18:19:18.448Z,99323.09
2022-10-23T18:21:46.021Z,99311.34
2022-10-23T18:24:13.082Z,99315.41
2022-10-23T18:26:41.744Z,99311.06
2022-10-23T18:29:11.272Z,99311.47
2022-10-23T18:31:40.712Z,99311.06
2022-10-23T18:34:22.094Z,99304.75
2022-10-23T18:36:51.588Z,99290.91
2022-10-23T18:39:22.955Z,99300.25
2022-10-23T18:41:53.972Z,99294.94
2022-10-23T18:44:21.681Z,99280.53
2022-10-23T18:46:49.727Z,99279.41
2022-10-23T18:49:19.242Z,99276.06
2022-10-23T18:51:46.646Z,99276.06
2022-10-23T18:54:15.970Z,99261.63
2022-10-23T18:56:43.349Z,99259.81
2022-10-23T18:59:16.958Z,99257.28
2022-10-23T19:01:44.433Z,99252.22
2022-10-23T19:04:14.567Z,99263.31
2022-10-23T19:06:42.092Z,99257.16
2022-10-23T19:09:11.262Z,99251.97
2022-10-23T19:11:41.451Z,99254.22
2022-10-23T19:14:08.789Z,99253.19
2022-10-23T19:16:41.341Z,99248.88
2022-10-23T19:19:42.058Z,99243.84
2022-10-23T19:22:12.518Z,99241.47
2022-10-23T19:24:47.712Z,99244.88
2022-10-23T19:27:15.835Z,99226.97
2022-10-23T19:29:47.705Z,99229.63
2022-10-23T19:32:18.484Z,99225.28
2022-10-23T19:34:45.970Z,99219.56
2022-10-23T19:40:02.899Z,99220.69
2022-10-23T19:42:29.983Z,99213.84
2022-10-23T19:44:57.097Z,99210.50
2022-10-23T19:47:24.302Z,99205.28
2022-10-23T19:49:52.366Z,99204.75
2022-10-23T19:52:20.224Z,99197.75
2022-10-23T19:54:47.585Z,99196.34
2022-10-23T19:57:17.079Z,99190.34
2022-10-23T19:59:51.226Z,99178.63
2022-10-23T20:02:20.785Z,99172.59
2022-10-23T20:04:48.409Z,99172.06
2022-10-23T20:07:16.311Z,99160.88
2022-10-23T20:09:46.443Z,99155.31
2022-10-23T20:12:13.786Z,99146.88
2022-10-23T20:14:41.326Z,99137.69
2022-10-23T20:17:11.821Z,99133.47
2022-10-23T20:19:39.300Z,99127.72
2022-10-23T20:22:09.077Z,99122.84
2022-10-23T20:24:37.911Z,99127.59
2022-10-23T20:27:06.391Z,99120.91
2022-10-23T20:29:33.640Z,99115.03
2022-10-23T20:32:01.475Z,99117.56
2022-10-23T20:34:28.589Z,99122.31
2022-10-23T20:36:57.918Z,99111.97
2022-10-23T20:39:26.969Z,99110.31
2022-10-23T20:41:56.090Z,99111.28
2022-10-23T20:44:24.157Z,99114.19
2022-10-23T20:46:52.010Z,99104.72
2022-10-23T20:49:19.664Z,99098.00
2022-10-23T20:51:55.918Z,99097.16
2022-10-23T20:54:26.466Z,99094.63
2022-10-23T20:56:54.304Z,99093.66
2022-10-23T20:59:21.458Z,99096.59
2022-10-23T21:01:51.763Z,99097.72
2022-10-23T21:04:21.477Z,99091.03
2022-10-23T21:07:08.855Z,99098.28
2022-10-23T21:09:38.901Z,99087.25
2022-10-23T21:12:07.143Z,99082.94
2022-10-23T21:14:34.885Z,99081.41
2022-10-23T21:17:02.162Z,99078.16
2022-10-23T21:19:29.296Z,99085.28
2022-10-23T21:21:56.534Z,99081.94
2022-10-23T21:24:24.509Z,99079.56
2022-10-23T21:26:51.520Z,99083.19
2022-10-23T21:29:19.762Z,99081.38
2022-10-23T21:31:55.862Z,99076.50
2022-10-23T21:34:24.384Z,99067.84
2022-10-23T21:39:38.926Z,99075.91
2022-10-23T21:42:06.507Z,99070.88
2022-10-23T21:44:33.804Z,99071.88
2022-10-23T21:47:01.387Z,99073.97
2022-10-23T21:49:28.622Z,99059.16
2022-10-23T21:51:55.551Z,99059.16
2022-10-23T21:54:22.871Z,99072.44
2022-10-23T21:56:52.163Z,99070.03
2022-10-23T21:59:23.002Z,99074.50
2022-10-23T22:01:50.616Z,99076.31
2022-10-23T22:04:19.378Z,99076.47
2022-10-23T22:06:48.949Z,99077.31
2022-10-23T22:09:19.801Z,99074.94
2022-10-23T22:11:47.126Z,99071.44
2022-10-23T22:14:14.339Z,99065.28
2022-10-23T22:16:42.358Z,99068.94
2022-10-23T22:19:12.102Z,99069.16
2022-10-23T22:21:41.285Z,99068.47
2022-10-23T22:24:09.980Z,99070.13
2022-10-23T22:26:43.211Z,99071.25
2022-10-23T22:29:13.734Z,99071.25
2022-10-23T22:31:45.585Z,99067.75
2022-10-23T22:34:27.006Z,99074.88
2022-10-23T22:37:08.547Z,99067.75
2022-10-23T22:39:41.783Z,99061.06
2022-10-23T22:42:08.988Z,99062.88
2022-10-23T22:44:35.929Z,99067.22
2022-10-23T22:47:02.846Z,99068.16
2022-10-23T22:49:29.984Z,99061.31
2022-10-23T22:51:57.451Z,99061.31
2022-10-23T22:54:24.397Z,99061.31
2022-10-23T22:56:51.252Z,99060.47
2022-10-23T22:59:18.841Z,99059.78
2022-10-23T23:01:47.939Z,99055.19
2022-10-23T23:07:06.867Z,99057.97
2022-10-23T23:09:36.887Z,99052.94
2022-10-23T23:12:03.961Z,99058.25
2022-10-23T23:14:30.825Z,99057.41
2022-10-23T23:16:57.838Z,99055.72
2022-10-23T23:19:26.835Z,99059.47
2022-10-23T23:21:57.957Z,99063.81
2022-10-23T23:24:25.522Z,99049.88
2022-10-23T23:26:52.616Z,99052.53
2022-10-23T23:29:19.701Z,99052.63
2022-10-23T23:31:46.744Z,99046.53
2022-10-23T23:34:13.620Z,99050.13
2022-10-23T23:36:41.391Z,99049.28
2022-10-23T23:39:08.397Z,99047.50
2022-10-23T23:41:35.333Z,99041.50
2022-10-23T23:44:02.211Z,99038.13
2022-10-23T23:46:29.156Z,99040.75
2022-10-23T23:48:56.095Z,99047.06
2022-10-23T23:51:25.119Z,99040.91
2022-10-23T23:53:52.649Z,99039.22
2022-10-23T23:56:20.507Z,99040.06
2022-10-23T23:58:47.378Z,99042.03
